createdAt,value
2019-02-14T00:00:17.392Z,43.60
2019-02-14T00:02:10.986Z,43.30
2019-02-14T00:03:10.964Z,43.70
2019-02-14T00:05:04.299Z,39.80
2019-02-14T00:06:04.099Z,37.90
2019-02-14T00:07:57.693Z,39.50
2019-02-14T00:08:57.686Z,42.10
2019-02-14T00:10:50.989Z,39.60
2019-02-14T00:11:50.780Z,41.70
2019-02-14T00:13:44.358Z,39.20
2019-02-14T00:14:44.341Z,42.10
2019-02-14T00:16:37.675Z,40.90
2019-02-14T00:17:37.491Z,38.50
2019-02-14T00:19:30.849Z,42.30
2019-02-14T00:20:31.090Z,38.70
2019-02-14T00:22:24.411Z,37.60
2019-02-14T00:23:24.181Z,39.40
2019-02-14T00:25:17.806Z,38.20
2019-02-14T00:26:17.525Z,35.90
2019-02-14T00:28:11.216Z,37.30
2019-02-14T00:29:10.890Z,36.20
2019-02-14T00:31:04.244Z,34.80
2019-02-14T00:32:04.479Z,37.50
2019-02-14T00:33:57.926Z,39.70
2019-02-14T00:34:57.665Z,41.80
2019-02-14T00:36:52.131Z,41.70
2019-02-14T00:37:52.145Z,39.30
2019-02-14T00:39:45.736Z,37.30
2019-02-14T00:40:45.470Z,38.20
2019-02-14T00:42:38.585Z,38.40
2019-02-14T00:43:38.807Z,38.00
2019-02-14T00:45:32.328Z,39.40
2019-02-14T00:46:32.167Z,40.80
2019-02-14T00:48:25.280Z,38.30
2019-02-14T00:49:25.524Z,39.00
2019-02-14T00:51:18.955Z,38.80
2019-02-14T00:52:18.650Z,34.50
2019-02-14T00:54:11.992Z,41.00
2019-02-14T00:55:12.172Z,34.90
2019-02-14T00:57:05.792Z,34.90
2019-02-14T00:59:58.738Z,36.50
2019-02-14T01:00:58.686Z,35.00
2019-02-14T01:02:52.602Z,38.80
2019-02-14T01:03:52.257Z,38.20
2019-02-14T01:05:45.710Z,35.00
2019-02-14T01:06:45.412Z,32.60
2019-02-14T01:08:39.245Z,37.70
2019-02-14T01:09:39.073Z,36.90
2019-02-14T01:11:32.163Z,37.10
2019-02-14T01:12:32.338Z,33.20
2019-02-14T01:14:25.677Z,33.10
2019-02-14T01:15:25.721Z,33.90
2019-02-14T01:17:19.083Z,37.10
2019-02-14T01:18:18.826Z,38.40
2019-02-14T01:20:12.484Z,34.90
2019-02-14T01:21:12.431Z,36.90
2019-02-14T01:23:05.766Z,36.60
2019-02-14T01:24:05.542Z,33.20
2019-02-14T01:25:59.400Z,35.50
2019-02-14T01:26:58.851Z,39.10
2019-02-14T01:28:52.497Z,33.90
2019-02-14T01:29:52.199Z,34.90
2019-02-14T01:31:46.007Z,41.70
2019-02-14T01:32:45.541Z,38.90
2019-02-14T01:34:38.934Z,39.70
2019-02-14T01:35:41.995Z,39.90
2019-02-14T01:37:32.507Z,34.70
2019-02-14T01:38:32.265Z,36.30
2019-02-14T01:40:25.969Z,32.20
2019-02-14T01:41:25.811Z,36.10
2019-02-14T01:43:19.165Z,35.40
2019-02-14T01:44:19.215Z,37.20
2019-02-14T01:46:12.552Z,34.50
2019-02-14T01:47:12.529Z,34.60
2019-02-14T01:49:06.196Z,37.00
2019-02-14T01:50:05.851Z,36.40
2019-02-14T01:51:58.984Z,40.70
2019-02-14T01:52:58.973Z,38.40
2019-02-14T01:54:52.800Z,36.30
2019-02-14T01:55:52.566Z,38.70
2019-02-14T01:57:45.701Z,36.30
2019-02-14T01:58:45.961Z,34.20
2019-02-14T02:00:39.231Z,38.10
2019-02-14T02:01:39.007Z,36.80
2019-02-14T02:03:32.652Z,38.10
2019-02-14T02:04:32.631Z,39.70
2019-02-14T02:06:26.068Z,37.40
2019-02-14T02:07:27.314Z,40.70
2019-02-14T02:09:19.419Z,36.90
2019-02-14T02:10:19.106Z,35.40
2019-02-14T02:12:12.893Z,39.30
2019-02-14T02:13:12.695Z,40.80
2019-02-14T02:15:06.021Z,35.80
2019-02-14T02:16:05.993Z,38.00
2019-02-14T02:17:59.671Z,33.80
2019-02-14T02:18:59.351Z,35.20
2019-02-14T02:20:52.533Z,40.10
2019-02-14T02:21:52.533Z,36.20
2019-02-14T02:25:18.115Z,35.30
2019-02-14T02:26:18.132Z,34.60
2019-02-14T02:28:11.270Z,41.40
2019-02-14T02:29:11.259Z,41.20
2019-02-14T02:31:04.919Z,33.60
2019-02-14T02:32:04.870Z,35.30
2019-02-14T02:33:58.205Z,40.00
2019-02-14T02:34:58.256Z,35.40
2019-02-14T02:36:51.526Z,35.70
2019-02-14T02:37:51.557Z,33.30
2019-02-14T02:39:45.425Z,35.10
2019-02-14T02:40:45.672Z,35.30
2019-02-14T02:42:39.263Z,39.00
2019-02-14T02:43:38.989Z,37.00
2019-02-14T02:45:32.335Z,38.60
2019-02-14T02:46:32.345Z,37.60
2019-02-14T02:48:25.974Z,35.00
2019-02-14T02:49:25.485Z,37.10
2019-02-14T02:51:18.881Z,37.30
2019-02-14T02:52:19.099Z,40.90
2019-02-14T02:54:12.493Z,36.00
2019-02-14T02:55:12.464Z,36.50
2019-02-14T02:57:05.834Z,37.00
2019-02-14T02:58:05.530Z,35.70
2019-02-14T02:59:58.698Z,39.80
2019-02-14T03:00:58.407Z,39.30
2019-02-14T03:02:51.779Z,42.80
2019-02-14T03:03:51.777Z,38.90
2019-02-14T03:05:45.951Z,38.50
2019-02-14T03:06:45.321Z,39.90
2019-02-14T03:08:38.666Z,41.10
2019-02-14T03:09:38.424Z,40.40
2019-02-14T03:11:53.188Z,37.40
2019-02-14T03:12:31.772Z,38.80
2019-02-14T03:14:25.147Z,37.60
2019-02-14T03:15:25.378Z,41.30
2019-02-14T03:17:18.907Z,36.30
2019-02-14T03:18:18.510Z,38.90
2019-02-14T03:20:12.708Z,35.20
2019-02-14T03:21:12.133Z,39.70
2019-02-14T03:23:05.829Z,47.20
2019-02-14T03:25:58.831Z,45.00
2019-02-14T03:26:58.626Z,41.20
2019-02-14T03:28:51.222Z,43.60
2019-02-14T03:29:50.952Z,44.00
2019-02-14T03:33:15.675Z,42.10
2019-02-14T03:34:15.449Z,41.10
2019-02-14T03:36:08.975Z,43.30
2019-02-14T03:37:08.963Z,43.10
2019-02-14T03:39:02.162Z,42.20
2019-02-14T03:40:02.344Z,41.30
2019-02-14T03:41:55.921Z,39.50
2019-02-14T03:42:55.504Z,42.10
2019-02-14T03:44:49.241Z,41.50
2019-02-14T03:45:48.899Z,41.90
2019-02-14T03:47:42.698Z,45.80
2019-02-14T03:48:42.218Z,42.20
2019-02-14T03:50:35.709Z,42.00
2019-02-14T03:53:29.442Z,43.10
2019-02-14T03:54:28.924Z,46.10
2019-02-14T03:56:43.287Z,43.20
2019-02-14T03:57:22.561Z,42.70
2019-02-14T03:59:15.949Z,44.90
2019-02-14T04:00:15.636Z,38.90
2019-02-14T04:02:09.249Z,38.70
2019-02-14T04:03:09.260Z,40.20
2019-02-14T04:05:02.858Z,40.70
2019-02-14T04:06:02.340Z,35.80
2019-02-14T04:07:55.703Z,51.20
2019-02-14T04:08:55.687Z,57.60
2019-02-14T04:10:49.477Z,58.10
2019-02-14T04:11:49.270Z,62.10
2019-02-14T04:13:42.153Z,54.70
2019-02-14T04:14:42.123Z,55.10
2019-02-14T04:16:35.429Z,55.20
2019-02-14T04:17:35.277Z,60.00
2019-02-14T04:19:28.831Z,52.40
2019-02-14T04:20:28.605Z,54.60
2019-02-14T04:22:22.163Z,57.90
2019-02-14T04:23:22.208Z,53.40
2019-02-14T04:25:14.859Z,48.90
2019-02-14T04:26:14.863Z,48.00
2019-02-14T04:28:08.401Z,48.20
2019-02-14T04:29:08.170Z,52.90
2019-02-14T04:31:01.747Z,47.50
2019-02-14T04:32:01.771Z,49.00
2019-02-14T04:35:27.425Z,50.90
2019-02-14T04:36:35.427Z,50.90
2019-02-14T04:38:20.494Z,52.30
2019-02-14T04:41:14.933Z,43.80
2019-02-14T04:42:15.145Z,49.10
2019-02-14T04:45:08.056Z,49.10
2019-02-14T04:47:03.546Z,50.10
2019-02-14T04:48:02.490Z,49.90
2019-02-14T04:50:03.687Z,46.10
2019-02-14T04:50:55.962Z,47.10
2019-02-14T04:52:49.576Z,47.20
2019-02-14T04:53:49.484Z,49.40
2019-02-14T04:55:42.838Z,50.50
2019-02-14T04:56:42.613Z,44.10
2019-02-14T04:58:36.218Z,39.30
2019-02-14T04:59:36.005Z,42.90
2019-02-14T05:01:29.311Z,41.20
2019-02-14T05:02:29.333Z,47.10
2019-02-14T05:04:23.135Z,46.00
2019-02-14T05:05:22.988Z,45.60
2019-02-14T05:07:16.139Z,44.90
2019-02-14T05:08:16.580Z,38.50
2019-02-14T05:10:09.555Z,43.30
2019-02-14T05:11:09.369Z,42.10
2019-02-14T05:13:03.058Z,43.00
2019-02-14T05:14:02.729Z,37.20
2019-02-14T05:15:56.482Z,38.30
2019-02-14T05:16:56.083Z,39.90
2019-02-14T05:18:49.439Z,36.70
2019-02-14T05:19:49.422Z,35.20
2019-02-14T05:21:43.032Z,40.50
2019-02-14T05:22:43.019Z,40.30
2019-02-14T05:24:36.989Z,36.40
2019-02-14T05:25:36.610Z,35.50
2019-02-14T05:27:30.279Z,35.20
2019-02-14T05:28:29.647Z,34.90
2019-02-14T05:30:23.965Z,32.70
2019-02-14T05:31:22.997Z,34.70
2019-02-14T05:33:16.744Z,32.40
2019-02-14T05:34:16.336Z,31.30
2019-02-14T05:36:09.742Z,32.90
2019-02-14T05:37:09.687Z,37.70
2019-02-14T05:39:42.348Z,35.60
2019-02-14T05:40:03.023Z,35.90
2019-02-14T05:41:56.428Z,33.30
2019-02-14T05:42:56.589Z,33.20
2019-02-14T05:44:50.171Z,34.10
2019-02-14T05:45:49.995Z,32.70
2019-02-14T05:47:43.318Z,29.00
2019-02-14T05:48:43.342Z,32.10
2019-02-14T05:50:36.863Z,28.50
2019-02-14T05:51:36.607Z,29.90
2019-02-14T05:53:29.852Z,31.60
2019-02-14T05:56:23.285Z,32.80
2019-02-14T05:57:23.367Z,29.70
2019-02-14T05:59:16.459Z,30.30
2019-02-14T06:00:16.478Z,27.40
2019-02-14T06:02:10.398Z,29.50
2019-02-14T06:03:09.789Z,25.80
2019-02-14T06:05:03.403Z,28.80
2019-02-14T06:06:03.139Z,28.70
2019-02-14T06:07:57.076Z,26.00
2019-02-14T06:08:56.582Z,30.50
2019-02-14T06:10:50.193Z,27.10
2019-02-14T06:11:50.492Z,24.70
2019-02-14T06:13:45.615Z,25.90
2019-02-14T06:14:43.302Z,22.80
2019-02-14T06:16:35.083Z,23.30
2019-02-14T06:17:34.907Z,27.40
2019-02-14T06:19:27.491Z,24.80
2019-02-14T06:20:27.424Z,28.10
2019-02-14T06:23:19.541Z,24.90
2019-02-14T06:25:12.695Z,23.70
2019-02-14T06:26:12.201Z,23.50
2019-02-14T06:28:05.156Z,21.70
2019-02-14T06:29:04.958Z,20.30
2019-02-14T06:30:57.510Z,22.30
2019-02-14T06:32:57.204Z,19.30
2019-02-14T06:33:57.196Z,21.30
2019-02-14T06:34:56.933Z,23.80
2019-02-14T06:35:57.136Z,19.20
2019-02-14T06:36:56.929Z,18.90
2019-02-14T06:37:56.944Z,21.30
2019-02-14T06:38:57.136Z,22.10
2019-02-14T06:39:57.194Z,21.00
2019-02-14T06:40:57.124Z,20.80
2019-02-14T06:41:57.097Z,17.90
2019-02-14T06:42:57.085Z,22.20
2019-02-14T06:43:57.081Z,18.10
2019-02-14T06:44:56.861Z,18.20
2019-02-14T06:47:30.063Z,19.00
2019-02-14T06:48:29.814Z,17.40
2019-02-14T06:50:22.893Z,15.60
2019-02-14T06:51:23.105Z,18.80
2019-02-14T06:53:16.499Z,18.70
2019-02-14T06:54:16.487Z,18.30
2019-02-14T06:56:09.795Z,14.30
2019-02-14T06:57:09.830Z,15.00
2019-02-14T06:59:03.208Z,15.00
2019-02-14T07:00:02.929Z,16.70
2019-02-14T07:01:56.473Z,15.20
2019-02-14T07:02:56.340Z,16.10
2019-02-14T07:04:49.825Z,16.30
2019-02-14T07:05:49.844Z,18.20
2019-02-14T07:07:42.554Z,13.20
2019-02-14T07:08:42.761Z,14.10
2019-02-14T07:10:36.317Z,14.60
2019-02-14T07:11:36.109Z,16.20
2019-02-14T07:13:28.705Z,16.10
2019-02-14T07:14:28.705Z,14.40
2019-02-14T07:16:23.186Z,11.40
2019-02-14T07:17:22.036Z,11.30
2019-02-14T07:18:22.081Z,9.40
2019-02-14T07:19:22.009Z,13.20
2019-02-14T07:20:22.269Z,10.00
2019-02-14T07:21:21.999Z,12.10
2019-02-14T07:22:22.246Z,11.20
2019-02-14T07:23:22.290Z,14.20
2019-02-14T07:24:22.221Z,11.00
2019-02-14T07:25:21.989Z,14.00
2019-02-14T07:26:22.246Z,10.50
2019-02-14T07:27:22.239Z,14.80
2019-02-14T07:28:22.203Z,14.50
2019-02-14T07:29:22.186Z,16.60
2019-02-14T07:30:21.925Z,10.90
2019-02-14T07:31:22.145Z,13.50
2019-02-14T07:32:22.135Z,11.40
2019-02-14T07:33:22.173Z,11.50
2019-02-14T07:34:21.892Z,9.80
2019-02-14T07:35:21.919Z,9.30
2019-02-14T07:36:21.922Z,11.30
2019-02-14T07:37:26.769Z,9.60
2019-02-14T07:38:21.893Z,10.30
2019-02-14T07:39:21.855Z,8.50
2019-02-14T07:40:21.888Z,7.90
2019-02-14T07:41:21.874Z,9.60
2019-02-14T07:42:21.826Z,8.30
2019-02-14T07:43:21.864Z,10.70
2019-02-14T07:44:21.812Z,9.20
2019-02-14T07:45:21.806Z,10.50
2019-02-14T07:46:22.969Z,9.60
2019-02-14T07:47:22.022Z,7.50
2019-02-14T07:48:22.212Z,8.90
2019-02-14T07:49:22.037Z,7.50
2019-02-14T07:50:22.000Z,9.30
2019-02-14T07:51:21.748Z,9.10
2019-02-14T07:52:25.178Z,9.40
2019-02-14T07:53:21.763Z,12.60
2019-02-14T07:54:21.997Z,9.10
2019-02-14T07:55:21.723Z,9.40
2019-02-14T07:56:21.958Z,9.90
2019-02-14T07:57:21.937Z,9.10
2019-02-14T07:58:21.942Z,8.40
2019-02-14T07:59:21.911Z,11.40
2019-02-14T08:00:21.947Z,7.60
2019-02-14T08:01:21.902Z,9.20
2019-02-14T08:02:21.890Z,10.00
2019-02-14T08:03:21.911Z,11.30
2019-02-14T08:04:21.650Z,12.50
2019-02-14T08:05:21.911Z,8.10
2019-02-14T08:06:21.878Z,7.60
2019-02-14T08:07:21.851Z,12.20
2019-02-14T08:08:21.864Z,9.00
2019-02-14T08:09:21.634Z,8.30
2019-02-14T08:10:21.836Z,8.80
2019-02-14T08:11:21.583Z,11.50
2019-02-14T08:12:21.838Z,11.80
2019-02-14T08:13:21.584Z,8.50
2019-02-14T08:14:21.798Z,8.40
2019-02-14T08:15:21.575Z,12.80
2019-02-14T08:16:21.585Z,9.90
2019-02-14T08:17:21.577Z,8.70
2019-02-14T08:18:21.897Z,13.60
2019-02-14T08:19:21.558Z,8.50
2019-02-14T08:20:21.546Z,9.50
2019-02-14T08:21:21.776Z,10.40
2019-02-14T08:22:21.743Z,15.90
2019-02-14T08:23:21.797Z,11.90
2019-02-14T08:24:21.733Z,11.40
2019-02-14T08:25:21.478Z,11.00
2019-02-14T08:26:21.559Z,8.70
2019-02-14T08:27:22.468Z,8.60
2019-02-14T08:28:21.439Z,8.70
2019-02-14T08:29:21.685Z,9.20
2019-02-14T08:30:22.458Z,9.10
2019-02-14T08:31:21.702Z,9.60
2019-02-14T08:32:21.449Z,10.40
2019-02-14T08:33:21.403Z,8.30
2019-02-14T08:34:21.657Z,11.00
2019-02-14T08:35:21.392Z,10.20
2019-02-14T08:36:21.603Z,12.90
2019-02-14T08:37:21.409Z,9.30
2019-02-14T08:38:22.203Z,7.30
2019-02-14T08:39:21.599Z,7.90
2019-02-14T08:40:21.356Z,13.30
2019-02-14T08:41:21.345Z,7.30
2019-02-14T08:42:21.324Z,4.90
2019-02-14T08:43:21.602Z,8.70
2019-02-14T08:44:21.557Z,7.40
2019-02-14T08:45:21.588Z,7.70
2019-02-14T08:46:21.551Z,10.00
2019-02-14T08:47:22.436Z,7.70
2019-02-14T08:48:21.515Z,8.00
2019-02-14T08:49:21.314Z,7.90
2019-02-14T08:50:22.229Z,11.00
2019-02-14T08:51:21.541Z,6.60
2019-02-14T08:52:21.544Z,9.70
2019-02-14T08:53:22.436Z,10.90
2019-02-14T08:54:22.438Z,11.10
2019-02-14T08:55:22.436Z,9.00
2019-02-14T08:56:21.503Z,6.80
2019-02-14T08:57:21.472Z,8.30
2019-02-14T08:58:21.479Z,6.90
2019-02-14T08:59:21.237Z,9.50
2019-02-14T09:00:21.410Z,8.80
2019-02-14T09:01:21.443Z,7.10
2019-02-14T09:02:21.391Z,10.60
2019-02-14T09:03:21.414Z,9.70
2019-02-14T09:04:21.438Z,8.00
2019-02-14T09:05:21.422Z,8.20
2019-02-14T09:06:21.179Z,11.00
2019-02-14T09:07:21.499Z,12.10
2019-02-14T09:08:21.165Z,8.50
2019-02-14T09:09:21.374Z,7.90
2019-02-14T09:10:21.330Z,7.40
2019-02-14T09:11:21.379Z,6.70
2019-02-14T09:12:21.343Z,8.30
2019-02-14T09:13:21.130Z,8.80
2019-02-14T09:14:21.116Z,7.10
2019-02-14T09:15:21.342Z,11.50
2019-02-14T09:16:21.117Z,8.90
2019-02-14T09:17:21.292Z,11.10
2019-02-14T09:18:21.273Z,9.50
2019-02-14T09:19:21.037Z,7.70
2019-02-14T09:20:21.039Z,8.40
2019-02-14T09:21:21.242Z,8.40
2019-02-14T09:22:21.272Z,8.10
2019-02-14T09:23:21.016Z,7.40
2019-02-14T09:24:21.754Z,7.30
2019-02-14T09:25:21.278Z,9.10
2019-02-14T09:26:21.253Z,7.20
2019-02-14T09:27:21.254Z,10.50
2019-02-14T09:28:21.010Z,9.20
2019-02-14T09:29:21.209Z,7.30
2019-02-14T09:30:21.264Z,6.80
2019-02-14T09:31:21.174Z,9.10
2019-02-14T09:32:20.933Z,8.10
2019-02-14T09:33:21.245Z,6.20
2019-02-14T09:34:21.161Z,7.00
2019-02-14T09:35:21.169Z,10.20
2019-02-14T09:36:21.154Z,10.70
2019-02-14T09:37:20.929Z,6.30
2019-02-14T09:38:20.936Z,7.90
2019-02-14T09:39:20.915Z,7.20
2019-02-14T09:40:21.120Z,9.20
2019-02-14T09:41:21.141Z,9.40
2019-02-14T09:42:21.719Z,13.70
2019-02-14T09:43:29.420Z,8.20
2019-02-14T09:44:20.891Z,10.70
2019-02-14T09:45:21.080Z,8.70
2019-02-14T09:46:21.088Z,9.00
2019-02-14T09:47:21.039Z,9.50
2019-02-14T09:48:21.036Z,8.10
2019-02-14T09:49:21.031Z,8.20
2019-02-14T09:50:21.013Z,8.10
2019-02-14T09:51:21.058Z,7.80
2019-02-14T09:52:20.793Z,6.80
2019-02-14T09:53:20.797Z,8.00
2019-02-14T09:54:20.754Z,10.80
2019-02-14T09:55:21.006Z,9.70
2019-02-14T09:56:20.774Z,8.60
2019-02-14T09:57:20.728Z,5.30
2019-02-14T09:58:22.589Z,8.40
2019-02-14T09:59:20.991Z,8.00
2019-02-14T10:00:21.022Z,8.00
2019-02-14T10:01:20.985Z,8.20
2019-02-14T10:02:21.001Z,8.00
2019-02-14T10:03:20.912Z,8.10
2019-02-14T10:04:20.695Z,8.90
2019-02-14T10:05:20.962Z,7.00
2019-02-14T10:06:20.921Z,7.00
2019-02-14T10:07:20.651Z,8.30
2019-02-14T10:08:20.670Z,7.00
2019-02-14T10:09:20.908Z,8.40
2019-02-14T10:10:20.878Z,8.30
2019-02-14T10:11:20.674Z,8.00
2019-02-14T10:12:20.652Z,8.60
2019-02-14T10:13:20.612Z,7.10
2019-02-14T10:14:20.603Z,7.60
2019-02-14T10:15:20.824Z,7.50
2019-02-14T10:16:20.823Z,7.50
2019-02-14T10:17:22.281Z,8.80
2019-02-14T10:18:20.796Z,7.70
2019-02-14T10:19:20.831Z,6.80
2019-02-14T10:20:20.844Z,6.70
2019-02-14T10:21:20.799Z,8.70
2019-02-14T10:22:20.799Z,7.80
2019-02-14T10:23:20.810Z,7.70
2019-02-14T10:24:20.795Z,8.80
2019-02-14T10:25:20.524Z,7.70
2019-02-14T10:26:20.507Z,9.40
2019-02-14T10:27:20.783Z,7.60
2019-02-14T10:28:20.527Z,7.10
2019-02-14T10:29:20.523Z,9.00
2019-02-14T10:30:20.718Z,7.10
2019-02-14T10:31:20.706Z,8.20
2019-02-14T10:32:20.733Z,7.90
2019-02-14T10:33:20.692Z,9.10
2019-02-14T10:34:20.448Z,8.70
2019-02-14T10:35:20.694Z,8.00
2019-02-14T10:36:20.475Z,7.20
2019-02-14T10:37:20.418Z,6.90
2019-02-14T10:38:22.598Z,7.40
2019-02-14T10:39:20.673Z,10.00
2019-02-14T10:40:20.668Z,8.30
2019-02-14T10:41:20.426Z,6.60
2019-02-14T10:42:20.424Z,6.30
2019-02-14T10:43:20.380Z,7.30
2019-02-14T10:44:20.402Z,7.20
2019-02-14T10:45:20.620Z,7.10
2019-02-14T10:46:20.607Z,8.90
2019-02-14T10:47:20.388Z,6.20
2019-02-14T10:48:20.368Z,9.80
2019-02-14T10:49:20.616Z,6.50
2019-02-14T10:50:20.566Z,7.30
2019-02-14T10:51:20.536Z,8.80
2019-02-14T10:52:20.312Z,7.30
2019-02-14T10:53:20.550Z,8.00
2019-02-14T10:54:20.301Z,7.80
2019-02-14T10:55:20.556Z,10.20
2019-02-14T10:56:20.555Z,8.60
2019-02-14T10:57:20.555Z,6.90
2019-02-14T10:58:20.539Z,11.30
2019-02-14T10:59:20.244Z,8.90
2019-02-14T11:00:20.507Z,7.30
2019-02-14T11:01:20.450Z,8.50
2019-02-14T11:02:20.514Z,7.70
2019-02-14T11:03:20.244Z,7.50
2019-02-14T11:04:20.240Z,10.50
2019-02-14T11:05:20.452Z,9.30
2019-02-14T11:06:20.441Z,10.90
2019-02-14T11:07:20.457Z,7.20
2019-02-14T11:08:20.225Z,8.00
2019-02-14T11:09:20.398Z,10.70
2019-02-14T11:10:20.164Z,8.80
2019-02-14T11:11:20.382Z,7.90
2019-02-14T11:12:21.817Z,7.60
2019-02-14T11:13:20.138Z,8.10
2019-02-14T11:14:28.698Z,9.40
2019-02-14T11:15:20.174Z,10.10
2019-02-14T11:16:20.402Z,8.60
2019-02-14T11:17:20.152Z,7.60
2019-02-14T11:18:20.137Z,7.80
2019-02-14T11:19:20.118Z,6.90
2019-02-14T11:20:20.342Z,9.60
2019-02-14T11:21:20.295Z,7.50
2019-02-14T11:22:20.344Z,8.40
2019-02-14T11:23:20.298Z,9.50
2019-02-14T11:24:20.279Z,9.00
2019-02-14T11:25:20.082Z,8.20
2019-02-14T11:26:20.269Z,7.70
2019-02-14T11:27:20.066Z,8.50
2019-02-14T11:28:20.061Z,7.00
2019-02-14T11:29:20.040Z,8.70
2019-02-14T11:30:20.292Z,8.90
2019-02-14T11:31:20.215Z,6.50
2019-02-14T11:32:20.024Z,9.40
2019-02-14T11:33:20.225Z,6.70
2019-02-14T11:34:20.016Z,9.00
2019-02-14T11:35:20.238Z,10.10
2019-02-14T11:36:20.238Z,9.40
2019-02-14T11:37:19.967Z,8.40
2019-02-14T11:38:19.990Z,7.70
2019-02-14T11:39:19.954Z,9.60
2019-02-14T11:40:20.225Z,10.10
2019-02-14T11:41:19.962Z,8.20
2019-02-14T11:42:21.787Z,8.10
2019-02-14T11:43:20.130Z,8.10
2019-02-14T11:44:19.941Z,9.50
2019-02-14T11:45:19.924Z,11.10
2019-02-14T11:46:20.135Z,8.60
2019-02-14T11:47:20.150Z,10.40
2019-02-14T11:48:19.870Z,7.70
2019-02-14T11:49:19.907Z,9.00
2019-02-14T11:50:19.886Z,6.50
2019-02-14T11:51:20.095Z,8.80
2019-02-14T11:52:19.875Z,8.50
2019-02-14T11:53:19.874Z,8.10
2019-02-14T11:54:20.081Z,8.30
2019-02-14T11:55:19.903Z,8.10
2019-02-14T11:56:20.026Z,6.80
2019-02-14T11:57:20.046Z,8.70
2019-02-14T11:58:19.799Z,8.40
2019-02-14T11:59:20.026Z,8.90
2019-02-14T12:00:20.031Z,9.30
2019-02-14T12:01:20.066Z,8.80
2019-02-14T12:02:19.985Z,7.30
2019-02-14T12:03:20.010Z,7.70
2019-02-14T12:04:19.751Z,8.60
2019-02-14T12:05:19.781Z,7.50
2019-02-14T12:06:19.743Z,8.90
2019-02-14T12:07:19.986Z,7.10
2019-02-14T12:08:19.996Z,7.70
2019-02-14T12:09:19.970Z,7.50
2019-02-14T12:10:19.957Z,9.60
2019-02-14T12:11:19.741Z,9.50
2019-02-14T12:12:20.826Z,7.80
2019-02-14T12:13:19.674Z,9.20
2019-02-14T12:14:19.894Z,10.90
2019-02-14T12:15:19.942Z,8.20
2019-02-14T12:16:19.878Z,9.90
2019-02-14T12:17:19.866Z,8.10
2019-02-14T12:18:19.865Z,6.90
2019-02-14T12:19:19.643Z,9.80
2019-02-14T12:20:19.650Z,7.50
2019-02-14T12:21:19.607Z,7.50
2019-02-14T12:22:19.633Z,6.90
2019-02-14T12:23:19.613Z,7.80
2019-02-14T12:24:19.874Z,10.20
2019-02-14T12:25:19.801Z,7.50
2019-02-14T12:26:19.609Z,9.30
2019-02-14T12:27:19.817Z,9.90
2019-02-14T12:28:19.808Z,9.00
2019-02-14T12:29:19.567Z,10.40
2019-02-14T12:30:19.800Z,7.90
2019-02-14T12:31:19.539Z,7.90
2019-02-14T12:32:19.572Z,9.20
2019-02-14T12:33:19.534Z,9.50
2019-02-14T12:34:19.521Z,8.70
2019-02-14T12:35:19.552Z,10.30
2019-02-14T12:36:19.729Z,10.20
2019-02-14T12:37:19.523Z,7.60
2019-02-14T12:38:19.751Z,8.10
2019-02-14T12:39:19.760Z,9.50
2019-02-14T12:40:19.507Z,8.30
2019-02-14T12:41:19.708Z,6.70
2019-02-14T12:42:19.466Z,7.50
2019-02-14T12:43:19.489Z,7.00
2019-02-14T12:44:19.441Z,8.80
2019-02-14T12:45:21.592Z,7.70
2019-02-14T12:46:19.452Z,9.40
2019-02-14T12:47:19.679Z,8.10
2019-02-14T12:48:19.655Z,8.70
2019-02-14T12:49:19.618Z,8.50
2019-02-14T12:50:19.424Z,7.80
2019-02-14T12:51:19.431Z,8.00
2019-02-14T12:52:19.626Z,7.50
2019-02-14T12:53:19.403Z,9.10
2019-02-14T12:54:19.635Z,9.30
2019-02-14T12:55:19.608Z,8.80
2019-02-14T12:56:19.565Z,9.50
2019-02-14T12:57:19.371Z,8.00
2019-02-14T12:58:19.579Z,9.40
2019-02-14T12:59:19.317Z,8.50
2019-02-14T13:00:19.541Z,10.80
2019-02-14T13:01:19.522Z,8.60
2019-02-14T13:02:19.339Z,7.20
2019-02-14T13:03:19.559Z,7.90
2019-02-14T13:04:19.284Z,7.60
2019-02-14T13:05:19.321Z,9.30
2019-02-14T13:06:19.301Z,8.60
2019-02-14T13:07:20.427Z,8.60
2019-02-14T13:08:19.293Z,8.20
2019-02-14T13:09:20.125Z,8.90
2019-02-14T13:10:19.276Z,8.50
2019-02-14T13:11:19.508Z,7.70
2019-02-14T13:12:19.219Z,11.00
2019-02-14T13:13:19.222Z,10.40
2019-02-14T13:14:19.464Z,8.40
2019-02-14T13:15:19.453Z,9.70
2019-02-14T13:16:19.228Z,8.30
2019-02-14T13:17:19.178Z,11.30
2019-02-14T13:18:19.167Z,8.80
2019-02-14T13:19:19.405Z,9.10
2019-02-14T13:20:19.395Z,11.70
2019-02-14T13:21:19.393Z,8.20
2019-02-14T13:22:19.367Z,8.00
2019-02-14T13:23:19.142Z,6.40
2019-02-14T13:24:19.379Z,9.20
2019-02-14T13:25:19.118Z,10.10
2019-02-14T13:26:19.402Z,7.60
2019-02-14T13:27:19.341Z,9.00
2019-02-14T13:28:19.100Z,10.20
2019-02-14T13:29:19.094Z,7.20
2019-02-14T13:30:19.331Z,10.10
2019-02-14T13:31:19.082Z,8.20
2019-02-14T13:32:19.103Z,9.40
2019-02-14T13:33:19.353Z,10.10
2019-02-14T13:34:19.052Z,7.50
2019-02-14T13:35:19.284Z,9.70
2019-02-14T13:36:19.067Z,7.70
2019-02-14T13:37:19.283Z,9.90
2019-02-14T13:38:19.065Z,8.20
2019-02-14T13:39:19.019Z,8.90
2019-02-14T13:40:19.257Z,8.20
2019-02-14T13:41:19.051Z,8.00
2019-02-14T13:42:19.242Z,9.10
2019-02-14T13:43:19.024Z,8.20
2019-02-14T13:44:19.192Z,9.00
2019-02-14T13:45:18.996Z,9.70
2019-02-14T13:46:18.958Z,9.10
2019-02-14T13:47:18.954Z,9.40
2019-02-14T13:48:18.942Z,8.20
2019-02-14T13:49:18.941Z,7.50
2019-02-14T13:50:18.965Z,9.90
2019-02-14T13:51:18.919Z,10.60
2019-02-14T13:52:19.128Z,6.60
2019-02-14T13:53:18.950Z,10.20
2019-02-14T13:54:19.188Z,8.20
2019-02-14T13:55:18.891Z,7.30
2019-02-14T13:56:19.144Z,6.40
2019-02-14T13:57:19.154Z,7.60
2019-02-14T13:58:18.871Z,7.40
2019-02-14T13:59:18.854Z,10.10
2019-02-14T14:00:18.845Z,6.70
2019-02-14T14:01:19.067Z,6.70
2019-02-14T14:02:19.061Z,7.00
2019-02-14T14:03:18.832Z,7.00
2019-02-14T14:04:19.034Z,6.30
2019-02-14T14:05:19.068Z,8.50
2019-02-14T14:06:19.079Z,7.00
2019-02-14T14:07:19.050Z,10.30
2019-02-14T14:08:18.998Z,8.20
2019-02-14T14:09:18.817Z,8.80
2019-02-14T14:10:18.776Z,6.50
2019-02-14T14:11:18.996Z,8.90
2019-02-14T14:12:18.807Z,8.20
2019-02-14T14:13:19.004Z,7.60
2019-02-14T14:14:18.965Z,7.90
2019-02-14T14:15:19.010Z,7.60
2019-02-14T14:16:18.942Z,6.90
2019-02-14T14:17:18.992Z,7.90
2019-02-14T14:18:18.749Z,11.60
2019-02-14T14:19:18.989Z,10.70
2019-02-14T14:20:18.741Z,7.50
2019-02-14T14:21:18.729Z,10.70
2019-02-14T14:22:18.962Z,10.20
2019-02-14T14:23:19.911Z,8.60
2019-02-14T14:24:18.698Z,10.30
2019-02-14T14:25:18.920Z,7.60
2019-02-14T14:26:18.898Z,8.60
2019-02-14T14:27:18.646Z,8.10
2019-02-14T14:28:18.629Z,8.30
2019-02-14T14:29:18.650Z,9.00
2019-02-14T14:30:18.626Z,8.10
2019-02-14T14:31:18.610Z,8.30
2019-02-14T14:32:18.843Z,7.20
2019-02-14T14:33:18.592Z,8.90
2019-02-14T14:34:18.825Z,7.70
2019-02-14T14:35:18.850Z,7.00
2019-02-14T14:36:18.568Z,8.40
2019-02-14T14:37:18.562Z,9.60
2019-02-14T14:38:18.825Z,10.40
2019-02-14T14:39:18.827Z,10.30
2019-02-14T14:40:20.346Z,10.40
2019-02-14T14:41:18.749Z,9.20
2019-02-14T14:42:18.803Z,9.60
2019-02-14T14:43:18.581Z,9.30
2019-02-14T14:44:18.777Z,10.80
2019-02-14T14:45:18.506Z,10.80
2019-02-14T14:46:18.535Z,10.90
2019-02-14T14:47:18.705Z,8.20
2019-02-14T14:48:19.840Z,8.40
2019-02-14T14:49:18.694Z,7.40
2019-02-14T14:50:18.720Z,8.40
2019-02-14T14:51:18.697Z,8.40
2019-02-14T14:52:18.666Z,9.30
2019-02-14T14:53:18.714Z,8.90
2019-02-14T14:54:18.470Z,10.60
2019-02-14T14:55:18.452Z,9.00
2019-02-14T14:56:18.629Z,11.50
2019-02-14T14:57:18.692Z,9.80
2019-02-14T14:58:18.402Z,9.80
2019-02-14T14:59:18.640Z,9.40
2019-02-14T15:00:18.603Z,10.00
2019-02-14T15:01:18.375Z,10.60
2019-02-14T15:02:18.628Z,11.00
2019-02-14T15:03:18.358Z,8.20
2019-02-14T15:04:18.571Z,11.40
2019-02-14T15:05:18.349Z,8.80
2019-02-14T15:06:18.377Z,10.20
2019-02-14T15:07:18.579Z,9.20
2019-02-14T15:08:18.353Z,8.90
2019-02-14T15:09:18.528Z,10.00
2019-02-14T15:10:18.340Z,10.20
2019-02-14T15:11:18.547Z,10.80
2019-02-14T15:12:18.553Z,11.60
2019-02-14T15:13:18.320Z,9.00
2019-02-14T15:14:18.265Z,8.60
2019-02-14T15:15:18.299Z,10.70
2019-02-14T15:16:18.262Z,10.70
2019-02-14T15:17:18.497Z,11.20
2019-02-14T15:18:18.494Z,11.30
2019-02-14T15:19:18.517Z,12.70
2019-02-14T15:20:18.468Z,11.70
2019-02-14T15:21:18.223Z,10.30
2019-02-14T15:22:18.461Z,12.50
2019-02-14T15:23:18.478Z,12.10
2019-02-14T15:24:18.466Z,12.80
2019-02-14T15:25:18.408Z,10.90
2019-02-14T15:26:18.176Z,12.00